createdAt,value
2024-01-16T00:00:19.028Z,8.000000
2024-01-16T00:05:19.220Z,10.000000
2024-01-16T00:10:19.741Z,10.000000
2024-01-16T00:15:19.210Z,11.000000
2024-01-16T00:20:19.588Z,10.000000
2024-01-16T00:25:19.226Z,10.000000
2024-01-16T00:30:18.897Z,10.000000
2024-01-16T00:35:18.978Z,9.000000
2024-01-16T00:40:19.089Z,8.000000
2024-01-16T00:45:18.017Z,10.000000
2024-01-16T00:50:17.397Z,8.000000
2024-01-16T00:55:17.258Z,11.000000
2024-01-16T01:00:17.158Z,11.000000
2024-01-16T01:05:16.998Z,10.000000
2024-01-16T01:10:17.446Z,11.000000
2024-01-16T01:15:18.116Z,12.000000
2024-01-16T01:20:17.255Z,10.000000
2024-01-16T01:25:17.594Z,10.000000
2024-01-16T01:30:18.322Z,11.000000
2024-01-16T01:35:17.142Z,11.000000
2024-01-16T01:40:17.408Z,12.000000
2024-01-16T01:45:17.805Z,11.000000
2024-01-16T01:50:19.219Z,11.000000
2024-01-16T01:55:17.471Z,12.000000
2024-01-16T02:00:17.414Z,10.000000
2024-01-16T02:05:17.300Z,10.000000
2024-01-16T02:10:17.864Z,10.000000
2024-01-16T02:15:17.632Z,9.000000
2024-01-16T02:20:17.563Z,10.000000
2024-01-16T02:25:17.660Z,11.000000
2024-01-16T02:30:17.334Z,11.000000
2024-01-16T02:35:18.064Z,10.000000
2024-01-16T02:40:17.812Z,9.000000
2024-01-16T02:45:17.498Z,9.000000
2024-01-16T02:50:17.689Z,9.000000
2024-01-16T02:55:18.199Z,9.000000
2024-01-16T03:00:17.881Z,9.000000
2024-01-16T03:05:18.873Z,9.000000
2024-01-16T03:10:17.754Z,9.000000
2024-01-16T03:15:17.292Z,9.000000
2024-01-16T03:20:17.753Z,8.000000
2024-01-16T03:25:17.959Z,8.000000
2024-01-16T03:30:17.624Z,8.000000
2024-01-16T03:35:17.770Z,6.000000
2024-01-16T03:40:18.467Z,8.000000
2024-01-16T03:45:20.956Z,6.000000
2024-01-16T03:50:18.678Z,6.000000
2024-01-16T03:55:18.044Z,6.000000
2024-01-16T04:00:18.173Z,5.000000
2024-01-16T04:05:17.499Z,5.000000
2024-01-16T04:10:18.110Z,5.000000
2024-01-16T04:15:21.709Z,5.000000
2024-01-16T04:20:17.484Z,4.000000
2024-01-16T04:25:17.593Z,5.000000
2024-01-16T04:30:17.865Z,6.000000
2024-01-16T04:35:17.949Z,6.000000
2024-01-16T04:40:17.741Z,6.000000
2024-01-16T04:45:17.756Z,5.000000
2024-01-16T04:50:18.196Z,3.000000
2024-01-16T04:55:18.618Z,5.000000
2024-01-16T05:00:17.888Z,5.000000
2024-01-16T05:05:18.183Z,5.000000
2024-01-16T05:10:17.702Z,6.000000
2024-01-16T05:15:17.739Z,5.000000
2024-01-16T05:20:18.611Z,5.000000
2024-01-16T05:25:17.631Z,5.000000
2024-01-16T05:30:18.171Z,5.000000
2024-01-16T05:35:17.701Z,5.000000
2024-01-16T05:40:17.884Z,9.000000
2024-01-16T05:45:18.253Z,4.000000
2024-01-16T05:50:19.478Z,2.000000
2024-01-16T05:55:18.063Z,9.000000
2024-01-16T06:00:17.872Z,11.000000
2024-01-16T06:05:17.958Z,12.000000
2024-01-16T06:10:18.199Z,11.000000
2024-01-16T06:15:17.760Z,12.000000
2024-01-16T06:20:18.459Z,8.000000
2024-01-16T06:25:18.490Z,8.000000
2024-01-16T06:30:18.531Z,6.000000
2024-01-16T06:35:18.075Z,5.000000
2024-01-16T06:40:17.957Z,5.000000
2024-01-16T06:45:18.024Z,3.000000
2024-01-16T06:50:18.354Z,8.000000
2024-01-16T06:55:18.084Z,6.000000
2024-01-16T07:00:18.401Z,6.000000
2024-01-16T07:05:18.280Z,5.000000
2024-01-16T07:10:17.986Z,4.000000
2024-01-16T07:15:17.972Z,6.000000
2024-01-16T07:20:18.216Z,5.000000
2024-01-16T07:25:18.068Z,4.000000
2024-01-16T07:30:18.250Z,5.000000
2024-01-16T07:35:18.915Z,8.000000
2024-01-16T07:40:18.509Z,6.000000
2024-01-16T07:45:18.972Z,6.000000
2024-01-16T07:50:19.508Z,6.000000
2024-01-16T07:55:18.110Z,4.000000
2024-01-16T08:00:18.184Z,5.000000
2024-01-16T08:05:18.406Z,8.000000
2024-01-16T08:10:19.738Z,6.000000
2024-01-16T08:15:18.228Z,8.000000
2024-01-16T08:20:18.414Z,8.000000
2024-01-16T08:25:18.178Z,10.000000
2024-01-16T08:30:18.391Z,10.000000
2024-01-16T08:35:18.683Z,10.000000
2024-01-16T08:40:20.823Z,10.000000
2024-01-16T08:45:18.377Z,11.000000
2024-01-16T08:50:18.794Z,9.000000
2024-01-16T08:55:17.748Z,10.000000
2024-01-16T09:00:17.422Z,9.000000
2024-01-16T09:05:17.486Z,12.000000
2024-01-16T09:10:17.448Z,9.000000
2024-01-16T09:15:17.589Z,11.000000
2024-01-16T09:20:17.493Z,11.000000
2024-01-16T09:25:18.238Z,10.000000
2024-01-16T09:30:17.743Z,11.000000
2024-01-16T09:35:17.554Z,9.000000
2024-01-16T09:40:17.577Z,11.000000
2024-01-16T09:45:18.581Z,10.000000
2024-01-16T09:50:18.841Z,10.000000
2024-01-16T09:55:18.112Z,9.000000
2024-01-16T10:00:17.775Z,11.000000
2024-01-16T10:05:17.728Z,9.000000
2024-01-16T10:10:21.661Z,10.000000
2024-01-16T10:15:17.815Z,11.000000
2024-01-16T10:20:17.809Z,11.000000
2024-01-16T10:25:18.653Z,11.000000
2024-01-16T10:30:17.844Z,12.000000
2024-01-16T10:35:18.174Z,10.000000
2024-01-16T10:40:17.794Z,10.000000
2024-01-16T10:45:17.763Z,10.000000
2024-01-16T10:50:17.682Z,11.000000
2024-01-16T10:55:17.871Z,10.000000
2024-01-16T11:00:17.863Z,12.000000
2024-01-16T11:05:17.849Z,9.000000
2024-01-16T11:10:18.407Z,9.000000
2024-01-16T11:15:17.892Z,10.000000
2024-01-16T11:20:37.467Z,11.000000
2024-01-16T11:25:19.690Z,12.000000
2024-01-16T11:30:17.813Z,13.000000
2024-01-16T11:35:17.867Z,12.000000
2024-01-16T11:40:17.865Z,12.000000
2024-01-16T11:45:18.495Z,14.000000
2024-01-16T11:50:18.937Z,14.000000
2024-01-16T11:55:18.100Z,14.000000
2024-01-16T12:00:17.864Z,15.000000
2024-01-16T12:05:18.020Z,15.000000
2024-01-16T12:10:18.288Z,14.000000
2024-01-16T12:15:17.907Z,15.000000
2024-01-16T12:20:18.498Z,14.000000
2024-01-16T12:25:18.716Z,16.000000
2024-01-16T12:30:17.999Z,14.000000
2024-01-16T12:35:18.276Z,14.000000
2024-01-16T12:40:18.323Z,14.000000
2024-01-16T12:45:18.059Z,14.000000
2024-01-16T12:50:18.163Z,14.000000
2024-01-16T12:55:18.370Z,15.000000
2024-01-16T13:00:18.125Z,15.000000
2024-01-16T13:05:18.104Z,17.000000
2024-01-16T13:10:18.347Z,15.000000
2024-01-16T13:15:18.347Z,15.000000
2024-01-16T13:20:18.487Z,14.000000
2024-01-16T13:25:19.055Z,15.000000
2024-01-16T13:30:18.276Z,15.000000
2024-01-16T13:35:18.430Z,14.000000
2024-01-16T13:40:18.567Z,13.000000
2024-01-16T13:45:18.708Z,11.000000
2024-01-16T13:50:19.323Z,11.000000
2024-01-16T13:55:18.703Z,10.000000
2024-01-16T14:00:18.229Z,10.000000
2024-01-16T14:05:18.377Z,9.000000
2024-01-16T14:10:18.457Z,9.000000
2024-01-16T14:15:18.377Z,13.000000
2024-01-16T14:20:18.228Z,13.000000
2024-01-16T14:25:18.508Z,12.000000
2024-01-16T14:30:18.942Z,12.000000
2024-01-16T14:35:18.529Z,12.000000
2024-01-16T14:40:18.562Z,11.000000
2024-01-16T14:45:18.608Z,12.000000
2024-01-16T14:50:18.601Z,14.000000
2024-01-16T14:55:19.184Z,12.000000
2024-01-16T15:00:18.631Z,12.000000
2024-01-16T15:05:18.966Z,12.000000
2024-01-16T15:10:18.676Z,11.000000
2024-01-16T15:15:18.467Z,12.000000
2024-01-16T15:20:18.470Z,10.000000
2024-01-16T15:25:18.906Z,10.000000
2024-01-16T15:30:18.505Z,12.000000
2024-01-16T15:35:18.621Z,12.000000
2024-01-16T15:40:20.335Z,13.000000
2024-01-16T15:45:19.612Z,14.000000
2024-01-16T15:50:19.838Z,13.000000
2024-01-16T15:55:18.767Z,15.000000
2024-01-16T16:00:18.680Z,15.000000
2024-01-16T16:05:18.676Z,14.000000
2024-01-16T16:10:18.904Z,15.000000
2024-01-16T16:15:19.156Z,15.000000
2024-01-16T16:20:18.706Z,16.000000
2024-01-16T16:25:18.888Z,16.000000
2024-01-16T16:30:18.876Z,16.000000
2024-01-16T16:35:18.910Z,18.000000
2024-01-16T16:40:18.860Z,18.000000
2024-01-16T16:45:18.784Z,16.000000
2024-01-16T16:50:19.576Z,18.000000
2024-01-16T16:55:19.296Z,18.000000
2024-01-16T17:00:19.183Z,18.000000
2024-01-16T17:05:19.536Z,20.000000
2024-01-16T17:10:18.913Z,19.000000
2024-01-16T17:15:19.185Z,18.000000
2024-01-16T17:20:18.984Z,20.000000
2024-01-16T17:25:18.840Z,19.000000
2024-01-16T17:30:17.405Z,19.000000
2024-01-16T17:35:17.031Z,19.000000
2024-01-16T17:40:16.961Z,19.000000
2024-01-16T17:45:18.038Z,21.000000
2024-01-16T17:50:18.139Z,20.000000
2024-01-16T17:55:17.102Z,20.000000
2024-01-16T18:00:17.344Z,20.000000
2024-01-16T18:05:17.910Z,20.000000
2024-01-16T18:10:17.380Z,20.000000
2024-01-16T18:15:17.552Z,22.000000
2024-01-16T18:20:18.912Z,20.000000
2024-01-16T18:25:17.351Z,23.000000
2024-01-16T18:30:17.459Z,23.000000
2024-01-16T18:35:17.062Z,24.000000
2024-01-16T18:40:17.552Z,23.000000
2024-01-16T18:45:17.560Z,25.000000
2024-01-16T18:50:17.341Z,26.000000
2024-01-16T18:55:17.000Z,26.000000
2024-01-16T19:00:17.465Z,25.000000
2024-01-16T19:05:17.268Z,26.000000
2024-01-16T19:10:17.504Z,25.000000
2024-01-16T19:15:17.834Z,24.000000
2024-01-16T19:20:17.438Z,24.000000
2024-01-16T19:25:17.231Z,26.000000
2024-01-16T19:30:17.585Z,26.000000
2024-01-16T19:35:17.367Z,25.000000
2024-01-16T19:40:17.819Z,25.000000
2024-01-16T19:45:19.793Z,25.000000
2024-01-16T19:50:18.651Z,25.000000
2024-01-16T19:55:17.340Z,26.000000
2024-01-16T20:00:17.422Z,25.000000
2024-01-16T20:05:18.067Z,25.000000
2024-01-16T20:10:17.701Z,23.000000
2024-01-16T20:15:17.676Z,20.000000
2024-01-16T20:20:18.201Z,18.000000
2024-01-16T20:25:17.455Z,18.000000
2024-01-16T20:30:17.935Z,18.000000
2024-01-16T20:35:17.294Z,19.000000
2024-01-16T20:40:17.721Z,20.000000
2024-01-16T20:45:17.566Z,22.000000
2024-01-16T20:50:17.502Z,28.000000
2024-01-16T20:55:17.829Z,28.000000
2024-01-16T21:00:17.950Z,25.000000
2024-01-16T21:05:17.674Z,20.000000
2024-01-16T21:10:18.020Z,15.000000
2024-01-16T21:15:17.625Z,16.000000
2024-01-16T21:20:18.050Z,19.000000
2024-01-16T21:25:17.857Z,21.000000
2024-01-16T21:30:18.148Z,19.000000
2024-01-16T21:35:17.687Z,19.000000
2024-01-16T21:40:17.669Z,19.000000
2024-01-16T21:45:19.028Z,23.000000
2024-01-16T21:50:26.222Z,23.000000
2024-01-16T21:55:17.870Z,27.000000
2024-01-16T22:00:17.904Z,29.000000
2024-01-16T22:05:18.120Z,32.000000
2024-01-16T22:10:17.807Z,32.000000
2024-01-16T22:15:18.116Z,36.000000
2024-01-16T22:20:17.959Z,32.000000
2024-01-16T22:25:17.806Z,36.000000
2024-01-16T22:30:18.362Z,29.000000
2024-01-16T22:35:17.890Z,32.000000
2024-01-16T22:40:18.423Z,34.000000
2024-01-16T22:45:17.943Z,35.000000
2024-01-16T22:50:17.903Z,34.000000
2024-01-16T22:55:17.902Z,33.000000
2024-01-16T23:00:18.139Z,34.000000
2024-01-16T23:05:17.878Z,33.000000
2024-01-16T23:10:17.830Z,32.000000
2024-01-16T23:15:18.304Z,35.000000
2024-01-16T23:20:18.028Z,33.000000
2024-01-16T23:25:18.008Z,34.000000
2024-01-16T23:30:18.359Z,36.000000
2024-01-16T23:35:18.262Z,33.000000
2024-01-16T23:40:18.301Z,36.000000
2024-01-16T23:45:27.168Z,37.000000
2024-01-16T23:50:19.142Z,33.000000
2024-01-16T23:55:18.058Z,29.000000
